sensor_id;sensor_type;location;lat;lon;timestamp;P1;durP1;ratioP1;P2;durP2;ratioP2
4630;SDS011;2328;48.170;11.602;2023-06-10T00:26:03;5.57;;;3.60;;
4630;SDS011;2328;48.170;11.602;2023-06-10T01:23:09;5.10;;;3.77;;
4630;SDS011;2328;48.170;11.602;2023-06-10T01:25:55;4.20;;;3.47;;
4630;SDS011;2328;48.170;11.602;2023-06-10T01:28:36;5.23;;;3.87;;
4630;SDS011;2328;48.170;11.602;2023-06-10T01:31:37;3.77;;;3.10;;
4630;SDS011;2328;48.170;11.602;2023-06-10T01:34:23;5.90;;;3.90;;
4630;SDS011;2328;48.170;11.602;2023-06-10T01:37:22;3.47;;;3.17;;
4630;SDS011;2328;48.170;11.602;2023-06-10T01:40:02;3.63;;;3.17;;
4630;SDS011;2328;48.170;11.602;2023-06-10T01:42:54;5.03;;;3.80;;
4630;SDS011;2328;48.170;11.602;2023-06-10T01:45:39;8.70;;;3.50;;
4630;SDS011;2328;48.170;11.602;2023-06-10T01:48:49;5.87;;;4.47;;
4630;SDS011;2328;48.170;11.602;2023-06-10T01:54:36;4.30;;;3.80;;
4630;SDS011;2328;48.170;11.602;2023-06-10T02:16:36;5.80;;;3.37;;
4630;SDS011;2328;48.170;11.602;2023-06-10T02:19:08;4.50;;;3.90;;
4630;SDS011;2328;48.170;11.602;2023-06-10T02:21:43;4.50;;;3.37;;
4630;SDS011;2328;48.170;11.602;2023-06-10T02:24:21;4.13;;;3.33;;
4630;SDS011;2328;48.170;11.602;2023-06-10T02:26:54;4.60;;;3.77;;
4630;SDS011;2328;48.170;11.602;2023-06-10T02:29:33;3.23;;;2.93;;
4630;SDS011;2328;48.170;11.602;2023-06-10T02:32:30;5.17;;;3.30;;
4630;SDS011;2328;48.170;11.602;2023-06-10T02:38:41;3.90;;;3.50;;
4630;SDS011;2328;48.170;11.602;2023-06-10T02:41:41;6.10;;;3.53;;
4630;SDS011;2328;48.170;11.602;2023-06-10T02:44:50;5.97;;;3.90;;
4630;SDS011;2328;48.170;11.602;2023-06-10T02:47:58;5.70;;;3.97;;
4630;SDS011;2328;48.170;11.602;2023-06-10T02:50:53;5.10;;;3.97;;
4630;SDS011;2328;48.170;11.602;2023-06-10T02:53:39;5.30;;;4.13;;
4630;SDS011;2328;48.170;11.602;2023-06-10T02:56:08;6.93;;;3.80;;
4630;SDS011;2328;48.170;11.602;2023-06-10T02:58:54;4.37;;;3.00;;
4630;SDS011;2328;48.170;11.602;2023-06-10T03:01:38;5.40;;;3.30;;
4630;SDS011;2328;48.170;11.602;2023-06-10T03:38:36;5.30;;;4.30;;
4630;SDS011;2328;48.170;11.602;2023-06-10T03:41:14;6.30;;;4.13;;
4630;SDS011;2328;48.170;11.602;2023-06-10T03:44:09;7.10;;;3.50;;
4630;SDS011;2328;48.170;11.602;2023-06-10T03:47:41;10.17;;;5.17;;
4630;SDS011;2328;48.170;11.602;2023-06-10T03:50:50;6.40;;;4.47;;
4630;SDS011;2328;48.170;11.602;2023-06-10T03:53:55;7.27;;;5.10;;
4630;SDS011;2328;48.170;11.602;2023-06-10T03:56:28;8.20;;;4.70;;
4630;SDS011;2328;48.170;11.602;2023-06-10T03:59:13;7.07;;;4.80;;
4630;SDS011;2328;48.170;11.602;2023-06-10T04:01:47;6.00;;;3.93;;
4630;SDS011;2328;48.170;11.602;2023-06-10T04:04:29;6.50;;;4.00;;
4630;SDS011;2328;48.170;11.602;2023-06-10T04:07:42;8.07;;;5.60;;
4630;SDS011;2328;48.170;11.602;2023-06-10T04:10:32;9.10;;;6.20;;
4630;SDS011;2328;48.170;11.602;2023-06-10T04:13:06;8.83;;;5.13;;
4630;SDS011;2328;48.170;11.602;2023-06-10T04:16:01;10.03;;;5.73;;
4630;SDS011;2328;48.170;11.602;2023-06-10T04:18:58;8.30;;;5.63;;
4630;SDS011;2328;48.170;11.602;2023-06-10T04:21:33;8.13;;;5.03;;
4630;SDS011;2328;48.170;11.602;2023-06-10T04:24:18;7.90;;;4.53;;
4630;SDS011;2328;48.170;11.602;2023-06-10T04:26:53;6.77;;;4.80;;
4630;SDS011;2328;48.170;11.602;2023-06-10T04:29:35;8.43;;;6.00;;
4630;SDS011;2328;48.170;11.602;2023-06-10T04:32:25;10.47;;;6.03;;
4630;SDS011;2328;48.170;11.602;2023-06-10T04:34:56;7.93;;;4.97;;
4630;SDS011;2328;48.170;11.602;2023-06-10T04:41:16;8.07;;;5.03;;
4630;SDS011;2328;48.170;11.602;2023-06-10T04:57:11;8.30;;;4.80;;
4630;SDS011;2328;48.170;11.602;2023-06-10T04:59:56;6.50;;;4.20;;
4630;SDS011;2328;48.170;11.602;2023-06-10T05:02:53;9.87;;;5.20;;
4630;SDS011;2328;48.170;11.602;2023-06-10T05:05:24;9.03;;;5.40;;
4630;SDS011;2328;48.170;11.602;2023-06-10T05:07:53;6.23;;;4.50;;
4630;SDS011;2328;48.170;11.602;2023-06-10T05:10:25;7.17;;;4.87;;
4630;SDS011;2328;48.170;11.602;2023-06-10T07:42:30;6.47;;;4.80;;
4630;SDS011;2328;48.170;11.602;2023-06-10T07:44:59;5.00;;;4.37;;
4630;SDS011;2328;48.170;11.602;2023-06-10T07:47:28;4.30;;;3.90;;
4630;SDS011;2328;48.170;11.602;2023-06-10T07:49:56;4.53;;;3.23;;
4630;SDS011;2328;48.170;11.602;2023-06-10T07:52:25;4.20;;;3.80;;
4630;SDS011;2328;48.170;11.602;2023-06-10T07:54:55;5.30;;;3.77;;
4630;SDS011;2328;48.170;11.602;2023-06-10T07:57:23;4.77;;;4.10;;
4630;SDS011;2328;48.170;11.602;2023-06-10T07:59:53;3.87;;;3.30;;
4630;SDS011;2328;48.170;11.602;2023-06-10T08:02:24;6.03;;;4.67;;
4630;SDS011;2328;48.170;11.602;2023-06-10T08:04:52;5.60;;;4.00;;
4630;SDS011;2328;48.170;11.602;2023-06-10T08:07:21;3.77;;;3.43;;
4630;SDS011;2328;48.170;11.602;2023-06-10T08:09:50;4.43;;;3.40;;
4630;SDS011;2328;48.170;11.602;2023-06-10T08:12:19;4.17;;;3.57;;
4630;SDS011;2328;48.170;11.602;2023-06-10T08:14:47;3.73;;;3.37;;
4630;SDS011;2328;48.170;11.602;2023-06-10T08:17:17;3.40;;;3.10;;
4630;SDS011;2328;48.170;11.602;2023-06-10T08:19:46;3.90;;;3.50;;
4630;SDS011;2328;48.170;11.602;2023-06-10T08:22:14;5.17;;;3.90;;
4630;SDS011;2328;48.170;11.602;2023-06-10T08:24:43;3.83;;;3.30;;
4630;SDS011;2328;48.170;11.602;2023-06-10T08:27:14;3.13;;;2.87;;
4630;SDS011;2328;48.170;11.602;2023-06-10T08:29:43;3.17;;;2.87;;
4630;SDS011;2328;48.170;11.602;2023-06-10T08:32:11;4.30;;;3.20;;
4630;SDS011;2328;48.170;11.602;2023-06-10T08:34:43;4.53;;;3.10;;
4630;SDS011;2328;48.170;11.602;2023-06-10T08:37:11;3.43;;;3.13;;
4630;SDS011;2328;48.170;11.602;2023-06-10T08:39:40;6.30;;;3.40;;
4630;SDS011;2328;48.170;11.602;2023-06-10T08:42:10;4.43;;;3.00;;
4630;SDS011;2328;48.170;11.602;2023-06-10T08:44:39;2.90;;;2.50;;
4630;SDS011;2328;48.170;11.602;2023-06-10T08:47:13;11.47;;;2.93;;
4630;SDS011;2328;48.170;11.602;2023-06-10T08:49:44;3.80;;;2.57;;
4630;SDS011;2328;48.170;11.602;2023-06-10T08:52:14;4.33;;;3.43;;
4630;SDS011;2328;48.170;11.602;2023-06-10T08:54:43;6.80;;;3.10;;
4630;SDS011;2328;48.170;11.602;2023-06-10T08:57:15;3.00;;;2.80;;
4630;SDS011;2328;48.170;11.602;2023-06-10T08:59:43;3.07;;;2.73;;
4630;SDS011;2328;48.170;11.602;2023-06-10T09:02:12;3.90;;;2.73;;
4630;SDS011;2328;48.170;11.602;2023-06-10T09:04:41;3.00;;;2.70;;
4630;SDS011;2328;48.170;11.602;2023-06-10T09:07:12;3.20;;;2.90;;
4630;SDS011;2328;48.170;11.602;2023-06-10T09:09:41;3.70;;;2.73;;
4630;SDS011;2328;48.170;11.602;2023-06-10T09:12:11;3.50;;;3.20;;
4630;SDS011;2328;48.170;11.602;2023-06-10T09:14:41;2.40;;;2.23;;
4630;SDS011;2328;48.170;11.602;2023-06-10T09:17:09;3.50;;;2.87;;
4630;SDS011;2328;48.170;11.602;2023-06-10T09:22:13;3.90;;;2.90;;
4630;SDS011;2328;48.170;11.602;2023-06-10T09:24:41;2.30;;;2.10;;
4630;SDS011;2328;48.170;11.602;2023-06-10T09:27:10;3.17;;;2.87;;
4630;SDS011;2328;48.170;11.602;2023-06-10T09:29:45;3.33;;;2.60;;
4630;SDS011;2328;48.170;11.602;2023-06-10T09:32:14;3.00;;;2.37;;
4630;SDS011;2328;48.170;11.602;2023-06-10T09:34:43;4.80;;;3.00;;
4630;SDS011;2328;48.170;11.602;2023-06-10T09:37:13;2.23;;;1.97;;
4630;SDS011;2328;48.170;11.602;2023-06-10T09:40:00;2.60;;;2.37;;
4630;SDS011;2328;48.170;11.602;2023-06-10T09:42:32;2.97;;;2.40;;
4630;SDS011;2328;48.170;11.602;2023-06-10T09:45:07;3.70;;;3.23;;
4630;SDS011;2328;48.170;11.602;2023-06-10T09:47:36;2.63;;;2.40;;
4630;SDS011;2328;48.170;11.602;2023-06-10T09:50:05;2.13;;;2.03;;
4630;SDS011;2328;48.170;11.602;2023-06-10T09:52:38;4.73;;;3.10;;
4630;SDS011;2328;48.170;11.602;2023-06-10T09:55:07;3.47;;;2.43;;
4630;SDS011;2328;48.170;11.602;2023-06-10T09:57:36;2.57;;;2.13;;
4630;SDS011;2328;48.170;11.602;2023-06-10T10:00:06;3.70;;;2.67;;
4630;SDS011;2328;48.170;11.602;2023-06-10T10:02:37;2.97;;;2.23;;
4630;SDS011;2328;48.170;11.602;2023-06-10T10:05:12;2.67;;;2.30;;
4630;SDS011;2328;48.170;11.602;2023-06-10T10:07:43;2.07;;;1.90;;
4630;SDS011;2328;48.170;11.602;2023-06-10T10:10:12;2.53;;;2.27;;
4630;SDS011;2328;48.170;11.602;2023-06-10T10:12:41;2.50;;;2.30;;
4630;SDS011;2328;48.170;11.602;2023-06-10T10:15:11;2.83;;;2.57;;
4630;SDS011;2328;48.170;11.602;2023-06-10T10:17:40;3.83;;;2.33;;
4630;SDS011;2328;48.170;11.602;2023-06-10T10:20:12;3.90;;;2.43;;
4630;SDS011;2328;48.170;11.602;2023-06-10T10:22:41;3.43;;;2.60;;
4630;SDS011;2328;48.170;11.602;2023-06-10T10:25:13;3.13;;;2.70;;
4630;SDS011;2328;48.170;11.602;2023-06-10T10:27:44;1.73;;;1.63;;
4630;SDS011;2328;48.170;11.602;2023-06-10T10:30:16;3.47;;;2.33;;
4630;SDS011;2328;48.170;11.602;2023-06-10T10:32:46;1.97;;;1.83;;
4630;SDS011;2328;48.170;11.602;2023-06-10T10:35:20;2.30;;;2.10;;
4630;SDS011;2328;48.170;11.602;2023-06-10T10:37:50;1.87;;;1.77;;
4630;SDS011;2328;48.170;11.602;2023-06-10T10:40:23;2.30;;;2.10;;
4630;SDS011;2328;48.170;11.602;2023-06-10T10:42:52;1.63;;;1.53;;
4630;SDS011;2328;48.170;11.602;2023-06-10T10:45:22;2.23;;;2.13;;
4630;SDS011;2328;48.170;11.602;2023-06-10T10:47:51;2.30;;;2.10;;
4630;SDS011;2328;48.170;11.602;2023-06-10T10:50:20;2.27;;;1.97;;
4630;SDS011;2328;48.170;11.602;2023-06-10T10:52:53;2.50;;;2.30;;
4630;SDS011;2328;48.170;11.602;2023-06-10T10:55:24;1.60;;;1.50;;
4630;SDS011;2328;48.170;11.602;2023-06-10T10:57:53;2.60;;;2.40;;
4630;SDS011;2328;48.170;11.602;2023-06-10T11:00:29;1.80;;;1.67;;
4630;SDS011;2328;48.170;11.602;2023-06-10T11:02:59;2.10;;;1.53;;
4630;SDS011;2328;48.170;11.602;2023-06-10T11:05:36;1.77;;;1.60;;
4630;SDS011;2328;48.170;11.602;2023-06-10T11:08:05;2.40;;;2.20;;
4630;SDS011;2328;48.170;11.602;2023-06-10T11:13:09;2.60;;;1.70;;
4630;SDS011;2328;48.170;11.602;2023-06-10T11:15:39;1.77;;;1.67;;
4630;SDS011;2328;48.170;11.602;2023-06-10T11:18:12;2.17;;;1.97;;
4630;SDS011;2328;48.170;11.602;2023-06-10T11:20:41;1.93;;;1.83;;
4630;SDS011;2328;48.170;11.602;2023-06-10T11:23:10;2.43;;;2.23;;
4630;SDS011;2328;48.170;11.602;2023-06-10T11:25:38;1.70;;;1.60;;
4630;SDS011;2328;48.170;11.602;2023-06-10T11:28:18;1.53;;;1.43;;
4630;SDS011;2328;48.170;11.602;2023-06-10T11:30:47;1.63;;;1.53;;
4630;SDS011;2328;48.170;11.602;2023-06-10T11:33:25;1.93;;;1.70;;
4630;SDS011;2328;48.170;11.602;2023-06-10T11:35:54;2.17;;;1.93;;
4630;SDS011;2328;48.170;11.602;2023-06-10T11:38:23;2.40;;;2.20;;
4630;SDS011;2328;48.170;11.602;2023-06-10T11:40:51;2.10;;;1.90;;
4630;SDS011;2328;48.170;11.602;2023-06-10T11:43:21;1.37;;;1.27;;
4630;SDS011;2328;48.170;11.602;2023-06-10T11:45:53;1.70;;;1.60;;
4630;SDS011;2328;48.170;11.602;2023-06-10T11:48:23;1.83;;;1.53;;
4630;SDS011;2328;48.170;11.602;2023-06-10T11:50:54;1.70;;;1.60;;
4630;SDS011;2328;48.170;11.602;2023-06-10T11:53:23;1.73;;;1.63;;
4630;SDS011;2328;48.170;11.602;2023-06-10T11:55:53;1.50;;;1.40;;
